Time;durP1;ratioP1;P1;durP2;ratioP2;P2;SDS_P1;SDS_P2;PMS_P1;PMS_P2;Temp;Humidity;BMP_temperature;BMP_pressure;BME280_temperature;BME280_humidity;BME280_pressure;Samples;Min_cycle;Max_cycle;Signal;HPM_P1;HPM_P2
2021/04/10 00:01:39;;;;;;;12.65;4.07;;;;;;;;;;3591353;39;20361;-53
2021/04/10 00:04:05;;;;;;;9.65;3.95;;;;;;;;;;3593509;39;20052;-53
2021/04/10 00:06:31;;;;;;;6.72;3.90;;;;;;;;;;3591981;39;20053;-55
2021/04/10 00:08:57;;;;;;;7.40;3.90;;;;;;;;;;3591341;39;20028;-54
2021/04/10 00:11:22;;;;;;;8.52;3.83;;;;;;;;;;3592830;40;20032;-54
2021/04/10 00:13:48;;;;;;;8.88;4.93;;;;;;;;;;3592230;40;20117;-53
2021/04/10 00:16:14;;;;;;;9.07;4.60;;;;;;;;;;3592208;39;20352;-54
2021/04/10 00:18:39;;;;;;;8.95;4.25;;;;;;;;;;3592914;39;20057;-53
2021/04/10 00:21:04;;;;;;;8.23;4.60;;;;;;;;;;3593292;40;20073;-56
2021/04/10 00:23:30;;;;;;;7.45;4.18;;;;;;;;;;3593551;40;20040;-55
2021/04/10 00:25:55;;;;;;;11.18;4.55;;;;;;;;;;3594097;39;20041;-54
2021/04/10 00:28:21;;;;;;;8.63;4.13;;;;;;;;;;3592329;39;20041;-54
2021/04/10 00:30:47;;;;;;;7.70;4.32;;;;;;;;;;3593849;39;20036;-56
2021/04/10 00:33:12;;;;;;;7.25;3.83;;;;;;;;;;3592461;39;20044;-55
2021/04/10 00:35:37;;;;;;;10.98;4.53;;;;;;;;;;3593796;39;20302;-54
2021/04/10 00:38:03;;;;;;;8.48;4.13;;;;;;;;;;3593606;40;20364;-54
2021/04/10 00:40:29;;;;;;;8.50;4.43;;;;;;;;;;3592528;40;20587;-51
2021/04/10 00:42:54;;;;;;;7.43;4.53;;;;;;;;;;3595322;40;20407;-53
2021/04/10 00:45:20;;;;;;;5.60;3.92;;;;;;;;;;3592429;39;20150;-56
2021/04/10 00:47:46;;;;;;;10.73;4.57;;;;;;;;;;3594849;40;20061;-56
2021/04/10 00:50:12;;;;;;;9.50;4.30;;;;;;;;;;3594920;39;20264;-52
2021/04/10 00:52:37;;;;;;;9.95;4.72;;;;;;;;;;3591266;40;20110;-56
2021/04/10 00:55:05;;;;;;;8.85;5.28;;;;;;;;;;3594633;39;20080;-50
2021/04/10 00:57:31;;;;;;;7.40;4.75;;;;;;;;;;3593915;39;20153;-52
2021/04/10 00:59:57;;;;;;;9.07;5.07;;;;;;;;;;3593857;39;20363;-54
2021/04/10 01:02:22;;;;;;;12.38;4.55;;;;;;;;;;3591253;40;20031;-52
2021/04/10 01:04:48;;;;;;;10.50;5.30;;;;;;;;;;3589618;39;20058;-52
2021/04/10 01:07:14;;;;;;;10.13;5.05;;;;;;;;;;3591060;40;20047;-56
2021/04/10 01:09:40;;;;;;;9.20;5.45;;;;;;;;;;3591396;39;20040;-54
2021/04/10 01:12:15;;;;;;;10.35;5.88;;;;;;;;;;3591076;40;20044;-56
2021/04/10 01:14:44;;;;;;;8.77;4.68;;;;;;;;;;3591956;40;20040;-56
2021/04/10 01:17:17;;;;;;;8.80;4.30;;;;;;;;;;3591589;40;20171;-54
2021/04/10 01:19:50;;;;;;;7.22;5.18;;;;;;;;;;3591461;39;20047;-52
2021/04/10 01:22:23;;;;;;;7.70;4.05;;;;;;;;;;3591227;40;20122;-54
2021/04/10 01:25:04;;;;;;;11.13;4.22;;;;;;;;;;3592456;40;20036;-55
2021/04/10 01:27:43;;;;;;;11.20;4.45;;;;;;;;;;3591476;39;20033;-56
2021/04/10 01:30:13;;;;;;;10.00;3.90;;;;;;;;;;3592252;40;20217;-56
2021/04/10 01:33:03;;;;;;;8.30;4.20;;;;;;;;;;3591442;40;20032;-56
2021/04/10 01:35:40;;;;;;;10.13;4.15;;;;;;;;;;3591201;40;20641;-56
2021/04/10 01:38:12;;;;;;;7.28;3.65;;;;;;;;;;3592335;40;20358;-55
2021/04/10 01:40:39;;;;;;;7.43;3.95;;;;;;;;;;3593380;39;20044;-55
2021/04/10 01:43:05;;;;;;;7.28;3.25;;;;;;;;;;3590850;39;20472;-53
2021/04/10 01:45:32;;;;;;;7.70;3.80;;;;;;;;;;3592701;39;20077;-56
2021/04/10 01:48:10;;;;;;;10.57;3.55;;;;;;;;;;3594973;39;20079;-54
2021/04/10 01:50:37;;;;;;;8.38;3.63;;;;;;;;;;3591525;39;20350;-54
2021/04/10 01:53:05;;;;;;;6.43;3.63;;;;;;;;;;3593718;40;20185;-55
2021/04/10 01:55:31;;;;;;;9.65;3.60;;;;;;;;;;3592762;39;20040;-56
2021/04/10 01:57:58;;;;;;;8.25;4.28;;;;;;;;;;3594101;39;20047;-56
2021/04/10 02:00:27;;;;;;;6.85;3.60;;;;;;;;;;3590599;40;20036;-55
2021/04/10 02:02:54;;;;;;;8.35;3.55;;;;;;;;;;3593660;40;20044;-53
2021/04/10 02:05:21;;;;;;;9.85;3.42;;;;;;;;;;3591574;39;20105;-53
2021/04/10 02:07:49;;;;;;;7.90;3.25;;;;;;;;;;3592526;40;20312;-53
2021/04/10 02:10:20;;;;;;;7.50;3.70;;;;;;;;;;3591996;39;20036;-56
2021/04/10 02:12:50;;;;;;;7.60;3.63;;;;;;;;;;3591213;40;20048;-54
2021/04/10 02:15:15;;;;;;;10.63;3.40;;;;;;;;;;3594265;39;20363;-55
2021/04/10 02:17:41;;;;;;;9.57;3.10;;;;;;;;;;3592407;40;20048;-55
2021/04/10 02:20:11;;;;;;;8.98;3.53;;;;;;;;;;3591609;39;20091;-53
2021/04/10 02:22:42;;;;;;;7.63;3.43;;;;;;;;;;3593388;39;20549;-53
2021/04/10 02:25:09;;;;;;;8.40;3.92;;;;;;;;;;3590688;40;20049;-54
2021/04/10 02:27:35;;;;;;;7.38;3.67;;;;;;;;;;3591865;40;20046;-54
2021/04/10 02:30:01;;;;;;;5.78;4.10;;;;;;;;;;3595027;40;20415;-54
2021/04/10 02:32:41;;;;;;;8.07;3.55;;;;;;;;;;3592161;39;20040;-52
2021/04/10 02:35:14;;;;;;;5.95;3.47;;;;;;;;;;3591783;40;20040;-53
2021/04/10 02:37:40;;;;;;;7.25;3.72;;;;;;;;;;3594867;39;20048;-53
2021/04/10 02:40:07;;;;;;;9.00;4.05;;;;;;;;;;3589360;40;20088;-54
2021/04/10 02:42:37;;;;;;;6.38;3.17;;;;;;;;;;3592005;40;20031;-55
2021/04/10 02:45:04;;;;;;;6.32;3.15;;;;;;;;;;3594646;40;20036;-54
2021/04/10 02:47:32;;;;;;;5.75;2.95;;;;;;;;;;3591315;40;20035;-54
2021/04/10 02:50:00;;;;;;;7.55;3.65;;;;;;;;;;3588588;39;20084;-54
2021/04/10 02:52:32;;;;;;;7.70;4.07;;;;;;;;;;3592412;39;20044;-55
2021/04/10 02:55:01;;;;;;;7.20;3.25;;;;;;;;;;3592047;39;20133;-55
2021/04/10 02:57:28;;;;;;;6.40;3.35;;;;;;;;;;3591890;39;20036;-51
2021/04/10 02:59:58;;;;;;;8.15;3.55;;;;;;;;;;3592995;39;20051;-52
2021/04/10 03:02:23;;;;;;;7.30;3.20;;;;;;;;;;3591274;39;20267;-53
2021/04/10 03:04:49;;;;;;;7.68;4.20;;;;;;;;;;3591899;39;20068;-53
2021/04/10 03:07:16;;;;;;;12.77;3.58;;;;;;;;;;3593754;39;20029;-56
2021/04/10 03:09:43;;;;;;;7.95;3.90;;;;;;;;;;3591972;39;20029;-54
2021/04/10 03:12:16;;;;;;;8.25;4.00;;;;;;;;;;3592172;39;20044;-55
2021/04/10 03:14:43;;;;;;;8.52;3.80;;;;;;;;;;3592902;40;20074;-54
2021/04/10 03:17:12;;;;;;;6.72;3.13;;;;;;;;;;3590160;40;20508;-53
2021/04/10 03:19:39;;;;;;;8.02;3.85;;;;;;;;;;3591026;40;20040;-53
2021/04/10 03:22:04;;;;;;;10.68;3.42;;;;;;;;;;3593281;39;20044;-49
2021/04/10 03:24:29;;;;;;;6.82;3.47;;;;;;;;;;3590078;39;20368;-51
2021/04/10 03:26:55;;;;;;;6.13;3.33;;;;;;;;;;3592746;40;20550;-55
2021/04/10 03:29:22;;;;;;;6.05;3.30;;;;;;;;;;3590319;39;20280;-55
2021/04/10 03:31:48;;;;;;;7.47;3.55;;;;;;;;;;3591017;40;20025;-56
2021/04/10 03:34:14;;;;;;;7.72;3.72;;;;;;;;;;3593021;39;20307;-53
2021/04/10 03:36:40;;;;;;;8.55;4.05;;;;;;;;;;3592154;40;20206;-56
2021/04/10 03:39:05;;;;;;;7.53;4.18;;;;;;;;;;3590708;39;20036;-54
2021/04/10 03:41:31;;;;;;;7.20;3.70;;;;;;;;;;3592424;39;20048;-51
2021/04/10 03:43:56;;;;;;;8.38;3.30;;;;;;;;;;3591781;39;20375;-54
2021/04/10 03:46:22;;;;;;;9.43;3.80;;;;;;;;;;3591037;39;20032;-53
2021/04/10 03:48:47;;;;;;;7.93;3.92;;;;;;;;;;3591614;40;20024;-54
2021/04/10 03:51:13;;;;;;;6.40;3.80;;;;;;;;;;3590616;39;20044;-53
2021/04/10 03:53:38;;;;;;;6.70;4.13;;;;;;;;;;3592582;39;20085;-53
2021/04/10 03:56:04;;;;;;;8.50;3.97;;;;;;;;;;3591354;40;20044;-52
2021/04/10 03:58:29;;;;;;;10.10;3.88;;;;;;;;;;3593297;39;20125;-50
2021/04/10 04:00:55;;;;;;;13.48;4.53;;;;;;;;;;3590011;39;20037;-51
2021/04/10 04:03:20;;;;;;;6.85;4.00;;;;;;;;;;3590388;40;20047;-49
2021/04/10 04:05:45;;;;;;;7.93;4.25;;;;;;;;;;3592459;39;20131;-54
2021/04/10 04:08:11;;;;;;;6.10;3.88;;;;;;;;;;3590253;39;20037;-55
2021/04/10 04:10:36;;;;;;;7.75;4.53;;;;;;;;;;3590655;40;20044;-55
2021/04/10 04:13:02;;;;;;;7.00;4.63;;;;;;;;;;3592637;40;20031;-55
2021/04/10 04:15:27;;;;;;;9.27;4.55;;;;;;;;;;3590071;40;20033;-55
2021/04/10 04:17:53;;;;;;;9.00;4.15;;;;;;;;;;3592809;39;20028;-54
2021/04/10 04:20:18;;;;;;;8.55;5.25;;;;;;;;;;3590897;39;20028;-53
2021/04/10 04:22:44;;;;;;;7.40;4.30;;;;;;;;;;3590250;39;20120;-54
2021/04/10 04:25:10;;;;;;;7.95;4.30;;;;;;;;;;3591993;40;20180;-56
2021/04/10 04:27:36;;;;;;;7.18;4.43;;;;;;;;;;3588823;40;20032;-55
2021/04/10 04:30:06;;;;;;;7.10;4.03;;;;;;;;;;3589821;40;20036;-54
2021/04/10 04:32:32;;;;;;;7.07;4.25;;;;;;;;;;3591444;40;20128;-55
2021/04/10 04:34:57;;;;;;;6.35;3.92;;;;;;;;;;3591509;39;20036;-54
2021/04/10 04:37:23;;;;;;;8.55;4.18;;;;;;;;;;3590586;39;20037;-55
2021/04/10 04:39:48;;;;;;;7.43;3.80;;;;;;;;;;3593014;39;20526;-56
2021/04/10 04:42:14;;;;;;;7.03;4.72;;;;;;;;;;3590255;40;20047;-55
2021/04/10 04:44:39;;;;;;;7.97;4.38;;;;;;;;;;3590039;40;20041;-55
2021/04/10 04:47:05;;;;;;;8.35;5.07;;;;;;;;;;3594255;39;20097;-54
2021/04/10 04:49:30;;;;;;;10.80;3.80;;;;;;;;;;3589605;40;20043;-55
2021/04/10 04:51:56;;;;;;;8.32;4.60;;;;;;;;;;3590506;39;20028;-49
2021/04/10 04:54:22;;;;;;;6.22;4.82;;;;;;;;;;3587577;40;20059;-51
2021/04/10 04:56:47;;;;;;;12.45;5.03;;;;;;;;;;3591255;39;20032;-53
2021/04/10 04:59:13;;;;;;;8.55;5.30;;;;;;;;;;3589995;40;20043;-54
2021/04/10 05:01:39;;;;;;;8.68;5.10;;;;;;;;;;3592072;39;20150;-55
2021/04/10 05:04:05;;;;;;;6.50;4.22;;;;;;;;;;3593768;39;20044;-52
2021/04/10 05:06:30;;;;;;;8.25;5.15;;;;;;;;;;3591533;40;20054;-55
2021/04/10 05:08:55;;;;;;;8.18;5.40;;;;;;;;;;3594454;39;20048;-56
2021/04/10 05:11:21;;;;;;;9.73;5.93;;;;;;;;;;3592010;39;20025;-55
2021/04/10 05:13:46;;;;;;;10.40;5.47;;;;;;;;;;3591589;40;20528;-52
2021/04/10 05:16:11;;;;;;;8.27;5.53;;;;;;;;;;3595635;39;20024;-55
2021/04/10 05:18:37;;;;;;;13.07;5.72;;;;;;;;;;3591365;39;20035;-53
2021/04/10 05:21:03;;;;;;;10.43;5.82;;;;;;;;;;3591359;39;20076;-54
2021/04/10 05:23:28;;;;;;;11.20;5.47;;;;;;;;;;3595826;39;20055;-54
2021/04/10 05:25:53;;;;;;;11.70;5.63;;;;;;;;;;3592463;39;20035;-55
2021/04/10 05:28:19;;;;;;;9.77;5.60;;;;;;;;;;3592063;40;20259;-56
2021/04/10 05:30:45;;;;;;;7.78;5.45;;;;;;;;;;3593661;40;20047;-54
2021/04/10 05:33:10;;;;;;;9.35;5.65;;;;;;;;;;3592208;40;20032;-52
2021/04/10 05:35:36;;;;;;;12.23;6.25;;;;;;;;;;3590582;40;20814;-54
2021/04/10 05:38:02;;;;;;;10.10;6.38;;;;;;;;;;3594706;39;20263;-55
2021/04/10 05:40:28;;;;;;;9.90;5.88;;;;;;;;;;3590808;39;20036;-53
2021/04/10 05:42:53;;;;;;;8.07;5.47;;;;;;;;;;3592916;40;20411;-53
2021/04/10 05:45:19;;;;;;;9.82;6.38;;;;;;;;;;3588997;40;20334;-55
2021/04/10 05:47:44;;;;;;;10.05;5.90;;;;;;;;;;3591222;40;20103;-57
2021/04/10 05:50:10;;;;;;;10.52;6.63;;;;;;;;;;3592817;39;20073;-55
2021/04/10 05:52:36;;;;;;;12.68;5.75;;;;;;;;;;3594053;39;20036;-53
2021/04/10 05:55:02;;;;;;;9.75;5.90;;;;;;;;;;3590400;39;20052;-53
2021/04/10 05:57:28;;;;;;;11.95;7.03;;;;;;;;;;3592332;39;20029;-56
2021/04/10 05:59:53;;;;;;;9.30;6.25;;;;;;;;;;3594553;39;20057;-54
2021/04/10 06:02:19;;;;;;;9.07;5.88;;;;;;;;;;3591513;40;20031;-53
2021/04/10 06:04:44;;;;;;;15.05;6.93;;;;;;;;;;3591845;40;20102;-55
2021/04/10 06:07:09;;;;;;;11.25;6.15;;;;;;;;;;3594028;40;20315;-53
2021/04/10 06:09:35;;;;;;;8.45;5.75;;;;;;;;;;3590811;40;20126;-54
2021/04/10 06:12:00;;;;;;;10.90;6.80;;;;;;;;;;3591905;40;20432;-56
2021/04/10 06:14:26;;;;;;;13.73;7.13;;;;;;;;;;3594459;40;20025;-54
2021/04/10 06:16:51;;;;;;;17.60;7.10;;;;;;;;;;3591252;39;20036;-55
2021/04/10 06:19:18;;;;;;;9.15;6.55;;;;;;;;;;3592374;39;20036;-57
2021/04/10 06:21:44;;;;;;;12.02;6.93;;;;;;;;;;3595189;40;20044;-55
2021/04/10 06:24:10;;;;;;;8.02;6.00;;;;;;;;;;3589830;40;20034;-54
2021/04/10 06:26:36;;;;;;;10.30;7.55;;;;;;;;;;3591813;40;20024;-55
2021/04/10 06:29:01;;;;;;;13.98;8.30;;;;;;;;;;3592641;39;20035;-56
2021/04/10 06:31:27;;;;;;;12.40;7.95;;;;;;;;;;3591515;40;20038;-56
2021/04/10 06:33:52;;;;;;;13.02;8.00;;;;;;;;;;3592375;40;20076;-56
2021/04/10 06:36:17;;;;;;;12.82;8.23;;;;;;;;;;3593609;40;20037;-56
2021/04/10 06:38:43;;;;;;;15.93;8.35;;;;;;;;;;3590195;39;20032;-55
2021/04/10 06:41:12;;;;;;;15.15;8.30;;;;;;;;;;3591113;39;20256;-54
2021/04/10 06:43:41;;;;;;;15.23;9.07;;;;;;;;;;3592336;39;20064;-55
2021/04/10 06:46:07;;;;;;;11.70;8.73;;;;;;;;;;3591785;39;20121;-57
2021/04/10 06:48:34;;;;;;;15.63;9.52;;;;;;;;;;3591715;40;20529;-57
2021/04/10 06:51:01;;;;;;;13.70;10.63;;;;;;;;;;3593994;39;20041;-57
2021/04/10 06:53:28;;;;;;;12.48;9.25;;;;;;;;;;3591199;40;20032;-56
2021/04/10 06:55:58;;;;;;;11.85;9.45;;;;;;;;;;3592375;39;20078;-56
2021/04/10 06:58:42;;;;;;;10.55;8.98;;;;;;;;;;3592132;39;20032;-55
2021/04/10 07:01:08;;;;;;;12.25;9.23;;;;;;;;;;3590818;40;20036;-56
2021/04/10 07:03:34;;;;;;;16.77;9.75;;;;;;;;;;3592488;40;20540;-57
2021/04/10 07:06:00;;;;;;;16.48;10.02;;;;;;;;;;3594381;39;20107;-57
2021/04/10 07:08:25;;;;;;;12.25;8.68;;;;;;;;;;3590238;39;20497;-57
2021/04/10 07:10:51;;;;;;;21.38;9.85;;;;;;;;;;3590992;39;20043;-55
2021/04/10 07:13:18;;;;;;;13.07;10.38;;;;;;;;;;3591596;40;20033;-56
2021/04/10 07:15:43;;;;;;;12.93;9.50;;;;;;;;;;3589498;39;20048;-56
2021/04/10 07:18:09;;;;;;;17.40;11.10;;;;;;;;;;3589874;40;20404;-56
2021/04/10 07:20:36;;;;;;;13.93;10.88;;;;;;;;;;3591316;40;20276;-55
2021/04/10 07:23:04;;;;;;;15.30;9.75;;;;;;;;;;3588441;39;20036;-55
2021/04/10 07:25:35;;;;;;;12.70;9.27;;;;;;;;;;3588801;39;20032;-54
2021/04/10 07:28:20;;;;;;;11.95;9.50;;;;;;;;;;3591750;39;20382;-54
2021/04/10 07:31:17;;;;;;;11.48;9.10;;;;;;;;;;3590851;40;20061;-55
2021/04/10 07:33:45;;;;;;;10.75;7.22;;;;;;;;;;3591742;39;20478;-55
2021/04/10 07:36:13;;;;;;;9.68;6.45;;;;;;;;;;3590337;40;20133;-54
2021/04/10 07:38:41;;;;;;;8.85;6.93;;;;;;;;;;3590439;40;20051;-56
2021/04/10 07:41:12;;;;;;;8.50;4.90;;;;;;;;;;3590419;40;20043;-55
2021/04/10 07:43:39;;;;;;;6.47;4.57;;;;;;;;;;3588141;40;20052;-53
2021/04/10 07:46:18;;;;;;;8.98;5.05;;;;;;;;;;3591976;39;20129;-55
2021/04/10 07:49:07;;;;;;;9.82;4.70;;;;;;;;;;3595234;39;20597;-53
2021/04/10 07:51:52;;;;;;;6.95;4.68;;;;;;;;;;3590302;40;20059;-54
2021/04/10 07:54:28;;;;;;;7.97;4.68;;;;;;;;;;3591520;40;20395;-55
2021/04/10 07:56:55;;;;;;;9.02;4.57;;;;;;;;;;3591711;40;20046;-55
2021/04/10 07:59:20;;;;;;;5.88;3.97;;;;;;;;;;3588463;40;20054;-55
2021/04/10 08:01:45;;;;;;;8.30;4.38;;;;;;;;;;3592381;40;20044;-55
2021/04/10 08:04:15;;;;;;;5.35;3.45;;;;;;;;;;3592521;39;20041;-56
2021/04/10 08:06:59;;;;;;;4.43;2.55;;;;;;;;;;3591843;39;20085;-54
2021/04/10 08:09:37;;;;;;;4.50;2.70;;;;;;;;;;3591150;40;20264;-55
2021/04/10 08:12:09;;;;;;;5.88;2.63;;;;;;;;;;3592026;40;20040;-53
2021/04/10 08:14:43;;;;;;;4.32;3.03;;;;;;;;;;3589495;40;20268;-56
2021/04/10 08:17:10;;;;;;;8.48;3.53;;;;;;;;;;3592558;39;20048;-54
2021/04/10 08:19:35;;;;;;;9.00;2.70;;;;;;;;;;3590298;40;20040;-52
2021/04/10 08:22:02;;;;;;;5.72;2.83;;;;;;;;;;3588130;40;20267;-56
2021/04/10 08:24:45;;;;;;;8.02;3.28;;;;;;;;;;3593198;40;20364;-54
2021/04/10 08:27:13;;;;;;;6.82;2.30;;;;;;;;;;3589895;40;20055;-55
2021/04/10 08:29:40;;;;;;;5.38;2.60;;;;;;;;;;3590510;40;20036;-55
2021/04/10 08:32:07;;;;;;;8.25;2.05;;;;;;;;;;3593635;39;20123;-57
2021/04/10 08:34:33;;;;;;;9.63;2.55;;;;;;;;;;3590405;40;20029;-55
2021/04/10 08:37:04;;;;;;;4.47;2.30;;;;;;;;;;3593093;40;20114;-56
2021/04/10 08:39:36;;;;;;;6.10;2.65;;;;;;;;;;3592298;39;20039;-55
2021/04/10 08:42:03;;;;;;;5.10;2.20;;;;;;;;;;3590962;39;20047;-55
2021/04/10 08:44:32;;;;;;;3.40;1.70;;;;;;;;;;3594038;40;20028;-54
2021/04/10 08:46:58;;;;;;;5.55;2.05;;;;;;;;;;3594309;39;20036;-55
2021/04/10 08:49:27;;;;;;;6.57;2.00;;;;;;;;;;3591605;39;20032;-55
2021/04/10 08:51:57;;;;;;;6.25;2.05;;;;;;;;;;3593563;40;20355;-55
2021/04/10 08:54:23;;;;;;;7.28;1.83;;;;;;;;;;3591678;39;20178;-56
2021/04/10 08:56:51;;;;;;;5.03;2.40;;;;;;;;;;3589100;40;20044;-57
2021/04/10 08:59:18;;;;;;;6.25;2.45;;;;;;;;;;3594234;39;20032;-56
2021/04/10 09:02:03;;;;;;;4.10;2.17;;;;;;;;;;3593064;40;20955;-53
2021/04/10 09:05:04;;;;;;;5.43;2.72;;;;;;;;;;3590507;40;20126;-57
2021/04/10 09:07:53;;;;;;;5.75;2.60;;;;;;;;;;3594366;39;20036;-57
2021/04/10 09:10:26;;;;;;;11.23;2.10;;;;;;;;;;3592233;39;20036;-56
2021/04/10 09:13:10;;;;;;;3.53;1.73;;;;;;;;;;3591332;39;20110;-56
2021/04/10 09:15:36;;;;;;;8.00;2.20;;;;;;;;;;3592410;40;20029;-56
2021/04/10 09:18:06;;;;;;;6.25;2.58;;;;;;;;;;3590942;40;20075;-54
2021/04/10 09:23:21;;;;;;;5.97;2.20;;;;;;;;;;3594910;39;20036;-56
2021/04/10 09:26:05;;;;;;;5.78;2.03;;;;;;;;;;3590582;40;20544;-53
2021/04/10 09:28:32;;;;;;;4.00;1.80;;;;;;;;;;3593317;40;20040;-56
2021/04/10 09:30:58;;;;;;;10.10;2.22;;;;;;;;;;3592015;39;20068;-54
2021/04/10 09:33:34;;;;;;;4.63;2.00;;;;;;;;;;3590264;40;20036;-52
2021/04/10 09:36:00;;;;;;;4.50;2.15;;;;;;;;;;3593789;40;20040;-54
2021/04/10 09:38:44;;;;;;;2.47;1.45;;;;;;;;;;3593078;39;20077;-53
2021/04/10 09:41:13;;;;;;;5.95;2.10;;;;;;;;;;3590536;40;20040;-56
2021/04/10 09:44:04;;;;;;;3.55;1.90;;;;;;;;;;3593564;39;20043;-55
2021/04/10 09:46:31;;;;;;;6.75;2.25;;;;;;;;;;3591657;40;20032;-55
2021/04/10 09:48:56;;;;;;;9.45;1.70;;;;;;;;;;3590845;39;20088;-55
2021/04/10 09:51:22;;;;;;;5.63;2.08;;;;;;;;;;3594591;40;20040;-55
2021/04/10 09:53:49;;;;;;;4.72;1.67;;;;;;;;;;3593421;39;20067;-56
2021/04/10 09:56:16;;;;;;;3.80;1.88;;;;;;;;;;3590842;40;20059;-55
2021/04/10 09:58:50;;;;;;;9.95;2.15;;;;;;;;;;3593466;39;20436;-57
2021/04/10 10:01:21;;;;;;;7.50;1.90;;;;;;;;;;3593203;39;20046;-56
2021/04/10 10:03:47;;;;;;;5.20;2.03;;;;;;;;;;3591898;40;20379;-56
2021/04/10 10:06:36;;;;;;;6.70;1.83;;;;;;;;;;3593215;39;20040;-56
2021/04/10 10:09:20;;;;;;;5.18;1.95;;;;;;;;;;3590607;39;20036;-55
2021/04/10 10:11:50;;;;;;;3.95;1.83;;;;;;;;;;3594099;39;20055;-54
2021/04/10 10:14:16;;;;;;;3.90;1.88;;;;;;;;;;3594392;40;20044;-56
2021/04/10 10:16:41;;;;;;;5.60;2.20;;;;;;;;;;3591467;40;20032;-55
2021/04/10 10:19:15;;;;;;;4.75;2.13;;;;;;;;;;3592755;40;20355;-54
2021/04/10 10:21:40;;;;;;;4.45;2.10;;;;;;;;;;3592749;40;20033;-52
2021/04/10 10:24:06;;;;;;;6.93;2.05;;;;;;;;;;3588758;40;20032;-55
2021/04/10 10:26:41;;;;;;;5.40;2.15;;;;;;;;;;3590365;40;20052;-52
2021/04/10 10:29:13;;;;;;;6.63;2.05;;;;;;;;;;3591173;40;20034;-55
2021/04/10 10:31:47;;;;;;;4.78;2.08;;;;;;;;;;3590107;40;20059;-57
2021/04/10 10:34:15;;;;;;;5.00;2.28;;;;;;;;;;3591600;40;20039;-56
2021/04/10 10:36:43;;;;;;;6.15;2.30;;;;;;;;;;3590140;40;20093;-56
2021/04/10 10:39:28;;;;;;;6.88;2.97;;;;;;;;;;3593077;40;20047;-52
2021/04/10 10:41:53;;;;;;;7.40;2.53;;;;;;;;;;3593430;39;20035;-55
2021/04/10 10:44:20;;;;;;;6.65;3.33;;;;;;;;;;3591092;39;20057;-56
2021/04/10 10:46:45;;;;;;;6.15;2.92;;;;;;;;;;3588731;40;20068;-54
2021/04/10 10:49:11;;;;;;;4.45;2.45;;;;;;;;;;3590294;40;20028;-55
2021/04/10 10:51:40;;;;;;;5.10;3.13;;;;;;;;;;3590076;40;20060;-54
2021/04/10 10:54:06;;;;;;;6.72;2.58;;;;;;;;;;3588275;40;20048;-53
2021/04/10 10:56:33;;;;;;;9.73;3.60;;;;;;;;;;3589560;40;20052;-56
2021/04/10 10:59:01;;;;;;;6.60;3.17;;;;;;;;;;3588538;39;20049;-56
2021/04/10 11:01:38;;;;;;;7.80;2.70;;;;;;;;;;3588660;40;20126;-53
2021/04/10 11:04:29;;;;;;;6.32;2.95;;;;;;;;;;3590106;40;20052;-56
2021/04/10 11:06:57;;;;;;;10.68;2.53;;;;;;;;;;3589317;40;20029;-56
2021/04/10 11:09:28;;;;;;;4.00;2.38;;;;;;;;;;3588149;40;20032;-55
2021/04/10 11:11:59;;;;;;;6.20;2.60;;;;;;;;;;3589236;39;20040;-53
2021/04/10 11:14:26;;;;;;;;;;;;;;;;;;3588691;39;20034;-57
2021/04/10 11:16:53;;;;;;;6.60;2.35;;;;;;;;;;3593936;39;20267;-55
2021/04/10 11:19:26;;;;;;;4.90;2.72;;;;;;;;;;3590058;39;20167;-56
2021/04/10 11:21:53;;;;;;;8.52;3.05;;;;;;;;;;3588725;39;20071;-57
2021/04/10 11:24:18;;;;;;;6.28;2.45;;;;;;;;;;3590465;39;20044;-57
2021/04/10 11:26:47;;;;;;;11.05;3.08;;;;;;;;;;3590173;39;20288;-57
2021/04/10 11:29:15;;;;;;;4.78;2.80;;;;;;;;;;3588934;39;20044;-54
2021/04/10 11:31:41;;;;;;;5.00;3.05;;;;;;;;;;3588776;39;20111;-56
2021/04/10 11:34:33;;;;;;;8.07;2.78;;;;;;;;;;3586791;39;20040;-56
2021/04/10 11:37:00;;;;;;;8.30;2.85;;;;;;;;;;3591183;39;20136;-56
2021/04/10 11:39:25;;;;;;;8.18;2.50;;;;;;;;;;3587961;39;20037;-58
2021/04/10 11:41:52;;;;;;;5.53;3.45;;;;;;;;;;3589772;39;20129;-57
2021/04/10 11:44:20;;;;;;;7.10;3.50;;;;;;;;;;3588591;39;20052;-58
2021/04/10 11:46:46;;;;;;;6.55;3.88;;;;;;;;;;3589835;39;20044;-56
2021/04/10 11:49:24;;;;;;;8.13;3.90;;;;;;;;;;3588595;39;20083;-54
2021/04/10 11:51:50;;;;;;;11.85;3.10;;;;;;;;;;3589829;39;20101;-57
2021/04/10 11:54:30;;;;;;;12.40;3.33;;;;;;;;;;3588837;39;20482;-55
2021/04/10 11:56:55;;;;;;;5.82;2.88;;;;;;;;;;3590237;39;20364;-58
2021/04/10 11:59:30;;;;;;;8.15;3.22;;;;;;;;;;3589165;39;20084;-54
2021/04/10 12:01:58;;;;;;;10.75;3.15;;;;;;;;;;3587520;39;20435;-56
2021/04/10 12:04:29;;;;;;;7.22;3.10;;;;;;;;;;3594243;39;20338;-54
2021/04/10 12:07:08;;;;;;;5.30;3.08;;;;;;;;;;3590288;39;20043;-56
2021/04/10 12:09:38;;;;;;;7.72;3.20;;;;;;;;;;3591050;39;20081;-57
2021/04/10 12:12:05;;;;;;;5.93;3.13;;;;;;;;;;3591285;39;20036;-56
2021/04/10 12:14:31;;;;;;;7.10;2.72;;;;;;;;;;3591854;39;20033;-57
2021/04/10 12:16:57;;;;;;;7.60;3.05;;;;;;;;;;3591882;39;21325;-56
2021/04/10 12:19:24;;;;;;;7.07;3.45;;;;;;;;;;3592450;39;20047;-54
2021/04/10 12:21:50;;;;;;;5.90;2.80;;;;;;;;;;3591048;39;20049;-56
2021/04/10 12:24:16;;;;;;;8.90;3.22;;;;;;;;;;3589773;39;20310;-53
2021/04/10 12:26:41;;;;;;;4.80;2.60;;;;;;;;;;3589686;39;20041;-54
2021/04/10 12:29:07;;;;;;;5.57;2.65;;;;;;;;;;3591584;39;20044;-56
2021/04/10 12:31:33;;;;;;;6.80;2.83;;;;;;;;;;3590820;39;20040;-56
2021/04/10 12:33:58;;;;;;;6.45;3.28;;;;;;;;;;3590831;39;20094;-56
2021/04/10 12:36:23;;;;;;;6.10;3.40;;;;;;;;;;3591962;39;20472;-56
2021/04/10 12:38:49;;;;;;;8.48;2.85;;;;;;;;;;3591102;39;20057;-56
2021/04/10 12:41:16;;;;;;;6.05;3.05;;;;;;;;;;3590570;39;20036;-56
2021/04/10 12:43:42;;;;;;;9.00;2.88;;;;;;;;;;3591466;39;20396;-56
2021/04/10 12:46:07;;;;;;;4.32;2.60;;;;;;;;;;3591870;39;20033;-55
2021/04/10 12:48:33;;;;;;;6.85;3.38;;;;;;;;;;3588985;39;20036;-56
2021/04/10 12:50:59;;;;;;;7.00;2.97;;;;;;;;;;3591775;39;20361;-56
2021/04/10 12:53:24;;;;;;;7.03;3.30;;;;;;;;;;3588250;39;20367;-54
2021/04/10 12:55:50;;;;;;;8.65;3.38;;;;;;;;;;3589328;39;20032;-55
2021/04/10 12:58:15;;;;;;;7.85;2.92;;;;;;;;;;3587508;39;20032;-56
2021/04/10 13:00:40;;;;;;;4.28;2.95;;;;;;;;;;3589519;39;20049;-56
2021/04/10 13:03:06;;;;;;;5.95;3.30;;;;;;;;;;3589333;39;20058;-56
2021/04/10 13:05:31;;;;;;;4.53;2.58;;;;;;;;;;3588317;39;20035;-55
2021/04/10 13:07:57;;;;;;;6.72;3.20;;;;;;;;;;3590601;39;20047;-55
2021/04/10 13:10:22;;;;;;;10.70;3.60;;;;;;;;;;3588847;40;20393;-56
2021/04/10 13:12:48;;;;;;;5.28;2.95;;;;;;;;;;3587357;40;20052;-56
2021/04/10 13:15:15;;;;;;;12.73;3.33;;;;;;;;;;3587870;40;20059;-54
2021/04/10 13:17:41;;;;;;;8.32;3.30;;;;;;;;;;3589054;40;20056;-55
2021/04/10 13:20:15;;;;;;;5.93;2.92;;;;;;;;;;3587412;40;20162;-55
2021/04/10 13:22:41;;;;;;;13.35;3.40;;;;;;;;;;3587841;39;20355;-54
2021/04/10 13:25:09;;;;;;;6.07;2.95;;;;;;;;;;3587360;40;20072;-56
2021/04/10 13:27:35;;;;;;;5.10;3.30;;;;;;;;;;3587716;40;20405;-54
2021/04/10 13:30:00;;;;;;;10.63;3.35;;;;;;;;;;3587306;39;20044;-54
2021/04/10 13:32:26;;;;;;;7.95;3.30;;;;;;;;;;3587565;39;20068;-56
2021/04/10 13:34:51;;;;;;;6.78;3.03;;;;;;;;;;3587391;39;20526;-56
2021/04/10 13:37:17;;;;;;;8.05;3.65;;;;;;;;;;3587889;39;20049;-55
2021/04/10 13:39:42;;;;;;;5.03;2.80;;;;;;;;;;3588442;39;20550;-55
2021/04/10 13:42:08;;;;;;;4.80;2.97;;;;;;;;;;3587965;39;20064;-56
2021/04/10 13:44:33;;;;;;;6.22;3.38;;;;;;;;;;3585876;39;20122;-55
2021/04/10 13:46:59;;;;;;;11.07;3.22;;;;;;;;;;3588327;39;20043;-55
2021/04/10 13:49:24;;;;;;;7.38;3.13;;;;;;;;;;3588614;39;20364;-54
2021/04/10 13:51:50;;;;;;;12.70;3.40;;;;;;;;;;3588201;39;20047;-51
2021/04/10 13:54:16;;;;;;;7.47;3.72;;;;;;;;;;3586942;39;20036;-55
2021/04/10 13:56:41;;;;;;;6.35;3.00;;;;;;;;;;3587456;39;20098;-53
2021/04/10 13:59:06;;;;;;;6.47;3.28;;;;;;;;;;3590299;39;20055;-55
2021/04/10 14:01:32;;;;;;;12.05;2.95;;;;;;;;;;3588168;39;20051;-54
2021/04/10 14:04:00;;;;;;;6.50;3.17;;;;;;;;;;3587283;39;20201;-54
2021/04/10 14:06:27;;;;;;;11.15;3.10;;;;;;;;;;3590154;40;20158;-54
2021/04/10 14:08:53;;;;;;;7.95;3.42;;;;;;;;;;3591121;39;20072;-55
2021/04/10 14:11:20;;;;;;;6.35;3.17;;;;;;;;;;3590946;39;20032;-54
2021/04/10 14:13:46;;;;;;;4.70;2.85;;;;;;;;;;3589942;39;20060;-53
2021/04/10 14:16:12;;;;;;;7.03;3.60;;;;;;;;;;3593799;39;20039;-54
2021/04/10 14:18:38;;;;;;;5.78;2.53;;;;;;;;;;3592562;39;20033;-54
2021/04/10 14:21:05;;;;;;;5.93;2.47;;;;;;;;;;3593085;39;20024;-51
2021/04/10 14:23:36;;;;;;;7.63;2.95;;;;;;;;;;3590457;40;20383;-53
2021/04/10 14:26:12;;;;;;;4.27;2.47;;;;;;;;;;3591332;40;20043;-53
2021/04/10 14:28:38;;;;;;;7.95;3.33;;;;;;;;;;3589422;40;20037;-51
2021/04/10 14:31:04;;;;;;;7.88;3.40;;;;;;;;;;3591699;39;20036;-55
2021/04/10 14:33:30;;;;;;;4.53;2.65;;;;;;;;;;3591767;40;20399;-52
2021/04/10 14:35:56;;;;;;;5.72;2.88;;;;;;;;;;3591336;39;20060;-49
2021/04/10 14:38:22;;;;;;;10.43;3.40;;;;;;;;;;3592068;39;20251;-51
2021/04/10 14:40:49;;;;;;;5.65;2.88;;;;;;;;;;3589970;39;20037;-55
2021/04/10 14:43:16;;;;;;;4.95;2.95;;;;;;;;;;3590980;39;20103;-54
2021/04/10 14:45:42;;;;;;;6.40;2.78;;;;;;;;;;3592150;40;20039;-55
2021/04/10 14:48:10;;;;;;;4.72;2.35;;;;;;;;;;3589318;40;20035;-59
2021/04/10 14:50:37;;;;;;;5.53;2.97;;;;;;;;;;3590843;40;20028;-55